createdAt,value
2022-10-02T00:03:16.369Z,9.30
2022-10-02T00:08:36.968Z,9.20
2022-10-02T00:13:48.885Z,9.30
2022-10-02T00:18:58.475Z,9.20
2022-10-02T00:24:09.802Z,9.20
2022-10-02T00:29:36.497Z,9.20
2022-10-02T00:34:59.910Z,9.20
2022-10-02T00:40:29.218Z,9.30
2022-10-02T00:46:07.594Z,9.50
2022-10-02T00:51:35.696Z,10.30
2022-10-02T00:56:56.681Z,9.90
2022-10-02T01:02:30.186Z,10.20
2022-10-02T01:07:41.079Z,10.20
2022-10-02T01:12:48.985Z,10.00
2022-10-02T01:17:58.335Z,10.20
2022-10-02T01:23:12.784Z,10.10
2022-10-02T01:28:22.955Z,10.10
2022-10-02T01:33:29.611Z,10.00
2022-10-02T01:38:36.818Z,9.90
2022-10-02T01:43:52.362Z,9.80
2022-10-02T01:49:39.184Z,9.90
2022-10-02T01:55:24.843Z,9.70
2022-10-02T02:00:42.427Z,9.90
2022-10-02T02:05:53.687Z,9.90
2022-10-02T02:11:13.538Z,9.90
2022-10-02T02:16:33.729Z,10.20
2022-10-02T02:22:08.138Z,10.30
2022-10-02T02:27:19.292Z,10.30
2022-10-02T02:32:31.247Z,10.30
2022-10-02T02:37:41.782Z,10.20
2022-10-02T02:43:07.645Z,10.10
2022-10-02T02:48:18.810Z,10.30
2022-10-02T02:53:32.517Z,10.30
2022-10-02T02:58:58.487Z,10.20
2022-10-02T03:04:05.233Z,9.90
2022-10-02T03:09:22.952Z,9.90
2022-10-02T03:15:03.513Z,10.00
2022-10-02T03:20:26.765Z,9.90
2022-10-02T03:25:43.527Z,9.90
2022-10-02T03:30:53.352Z,10.00
2022-10-02T03:36:01.757Z,10.10
2022-10-02T03:41:08.658Z,10.30
2022-10-02T03:46:15.384Z,9.90
2022-10-02T03:51:21.956Z,9.60
2022-10-02T03:56:42.397Z,9.60
2022-10-02T04:01:52.211Z,9.40
2022-10-02T04:07:08.955Z,9.40
2022-10-02T04:12:29.156Z,9.60
2022-10-02T04:17:46.122Z,9.40
2022-10-02T04:22:56.549Z,9.40
2022-10-02T04:28:10.798Z,9.20
2022-10-02T04:33:23.956Z,9.40
2022-10-02T04:39:06.841Z,9.40
2022-10-02T04:44:36.017Z,9.40
2022-10-02T04:50:12.373Z,9.30
2022-10-02T04:55:41.492Z,9.40
2022-10-02T05:01:21.196Z,9.50
2022-10-02T05:06:44.150Z,9.40
2022-10-02T05:12:14.326Z,9.50
2022-10-02T05:17:48.141Z,9.60
2022-10-02T05:23:17.385Z,9.40
2022-10-02T05:29:03.037Z,9.40
2022-10-02T05:34:35.643Z,9.70
2022-10-02T05:40:24.779Z,9.80
2022-10-02T05:46:01.292Z,9.70
2022-10-02T05:51:53.877Z,9.70
2022-10-02T05:57:32.782Z,9.60
2022-10-02T06:02:57.014Z,9.60
2022-10-02T06:08:06.957Z,9.70
2022-10-02T06:13:24.453Z,9.80
2022-10-02T06:18:34.814Z,10.00
2022-10-02T06:23:46.027Z,10.10
2022-10-02T06:29:02.882Z,10.40
2022-10-02T06:34:13.515Z,10.50
2022-10-02T06:39:33.577Z,10.60
2022-10-02T06:44:57.469Z,10.60
2022-10-02T06:50:23.623Z,10.80
2022-10-02T06:56:12.467Z,11.10
2022-10-02T07:01:33.605Z,11.20
2022-10-02T07:07:05.639Z,11.40
2022-10-02T07:12:50.070Z,11.30
2022-10-02T07:18:10.159Z,11.50
2022-10-02T07:23:43.704Z,11.70
2022-10-02T07:29:19.906Z,11.80
2022-10-02T07:35:01.281Z,11.90
2022-10-02T07:40:15.671Z,12.10
2022-10-02T07:45:29.279Z,12.10
2022-10-02T07:50:58.261Z,12.40
2022-10-02T07:56:06.501Z,12.60
2022-10-02T08:01:26.631Z,12.60
2022-10-02T08:06:37.837Z,12.80
2022-10-02T08:11:58.354Z,12.80
2022-10-02T08:17:29.548Z,12.80
2022-10-02T08:22:46.753Z,12.90
2022-10-02T08:28:06.237Z,13.10
2022-10-02T08:33:37.503Z,12.80
2022-10-02T08:39:03.381Z,12.80
2022-10-02T08:44:47.371Z,12.80
2022-10-02T08:50:48.878Z,12.60
2022-10-02T08:56:46.513Z,12.70
2022-10-02T09:02:43.023Z,12.80
2022-10-02T09:08:13.134Z,12.90
2022-10-02T09:14:00.683Z,12.90
2022-10-02T09:19:43.995Z,13.00
2022-10-02T09:25:18.044Z,13.00
2022-10-02T09:30:40.775Z,12.70
2022-10-02T09:36:26.866Z,12.90
2022-10-02T09:42:21.816Z,12.90
2022-10-02T09:47:44.743Z,13.00
2022-10-02T09:53:30.802Z,13.20
2022-10-02T09:59:21.285Z,13.30
2022-10-02T10:05:05.490Z,13.40
2022-10-02T10:10:22.797Z,13.50
2022-10-02T10:16:06.562Z,13.40
2022-10-02T10:21:52.576Z,13.30
2022-10-02T10:27:38.887Z,13.20
2022-10-02T10:33:00.808Z,13.30
2022-10-02T10:38:35.284Z,13.40
2022-10-02T10:44:19.739Z,13.40
2022-10-02T10:49:53.637Z,13.50
2022-10-02T10:55:39.641Z,13.30
2022-10-02T11:01:17.901Z,13.60
2022-10-02T11:06:57.909Z,13.60
2022-10-02T11:12:37.513Z,13.40
2022-10-02T11:18:07.241Z,13.30
2022-10-02T11:23:40.575Z,13.30
2022-10-02T11:29:13.186Z,13.40
2022-10-02T11:34:47.367Z,13.40
2022-10-02T11:40:35.552Z,13.40
2022-10-02T11:46:04.676Z,13.30
2022-10-02T11:51:41.670Z,13.40
2022-10-02T11:57:18.456Z,13.40
2022-10-02T12:02:39.353Z,13.70
2022-10-02T12:08:18.002Z,14.30
2022-10-02T12:13:45.900Z,14.50
2022-10-02T12:19:09.008Z,14.60
2022-10-02T12:24:37.782Z,14.50
2022-10-02T12:30:10.459Z,14.40
2022-10-02T12:35:38.629Z,14.30
2022-10-02T12:41:18.484Z,14.40
2022-10-02T12:47:01.227Z,14.20
2022-10-02T12:52:48.387Z,14.30
2022-10-02T12:58:21.087Z,14.20
2022-10-02T13:04:03.226Z,14.20
2022-10-02T13:09:37.730Z,14.10
2022-10-02T13:15:21.160Z,14.20
2022-10-02T13:21:03.889Z,14.20
2022-10-02T13:26:33.362Z,14.00
2022-10-02T13:32:01.245Z,14.20
2022-10-02T13:37:38.441Z,14.30
2022-10-02T13:43:21.270Z,14.60
2022-10-02T13:49:15.616Z,14.50
2022-10-02T13:54:53.046Z,14.40
2022-10-02T14:00:44.156Z,14.10
2022-10-02T14:06:04.050Z,14.30
2022-10-02T14:11:29.231Z,14.40
2022-10-02T14:17:13.640Z,14.40
2022-10-02T14:22:50.098Z,14.40
2022-10-02T14:28:25.685Z,14.60
2022-10-02T14:34:11.604Z,14.60
2022-10-02T14:39:29.610Z,14.70
2022-10-02T14:45:05.244Z,14.50
2022-10-02T14:50:38.950Z,14.30
2022-10-02T14:56:09.554Z,14.30
2022-10-02T15:01:27.766Z,14.30
2022-10-02T15:07:02.918Z,14.40
2022-10-02T15:12:10.928Z,14.40
2022-10-02T15:18:00.474Z,14.30
2022-10-02T15:23:15.757Z,14.10
2022-10-02T15:29:06.199Z,13.90
2022-10-02T15:34:59.536Z,13.90
2022-10-02T15:40:30.831Z,13.60
2022-10-02T15:46:04.023Z,13.40
2022-10-02T15:51:42.985Z,13.20
2022-10-02T15:57:22.055Z,13.20
2022-10-02T16:02:54.006Z,13.00
2022-10-02T16:08:23.340Z,12.90
2022-10-02T16:14:04.439Z,13.00
2022-10-02T16:19:40.639Z,13.00
2022-10-02T16:25:26.375Z,12.90
2022-10-02T16:30:55.073Z,12.80
2022-10-02T16:36:43.660Z,12.60
2022-10-02T16:42:21.724Z,12.30
2022-10-02T16:47:48.248Z,12.40
2022-10-02T16:53:29.902Z,12.20
2022-10-02T16:59:01.404Z,11.90
2022-10-02T17:04:48.140Z,12.00
2022-10-02T17:10:08.143Z,11.60
2022-10-02T17:15:56.163Z,11.80
2022-10-02T17:21:13.487Z,11.90
2022-10-02T17:26:35.753Z,12.00
2022-10-02T17:31:56.951Z,12.20
2022-10-02T17:37:15.454Z,12.40
2022-10-02T17:42:55.054Z,12.40
2022-10-02T17:48:40.268Z,12.40
2022-10-02T17:54:25.891Z,12.40
2022-10-02T18:00:00.191Z,12.40
2022-10-02T18:05:38.255Z,12.40
2022-10-02T18:10:58.605Z,12.30
2022-10-02T18:16:17.483Z,12.30
2022-10-02T18:22:03.882Z,12.20
2022-10-02T18:28:02.994Z,12.20
2022-10-02T18:33:48.180Z,12.30
2022-10-02T18:39:15.715Z,12.40
2022-10-02T18:44:30.365Z,12.40
2022-10-02T18:50:14.756Z,12.20
2022-10-02T18:55:51.924Z,12.10
2022-10-02T19:01:21.515Z,12.00
2022-10-02T19:07:04.909Z,12.00
2022-10-02T19:12:25.391Z,12.10
2022-10-02T19:17:33.764Z,12.00
2022-10-02T19:22:47.391Z,12.10
2022-10-02T19:27:58.495Z,12.10
2022-10-02T19:33:10.241Z,12.20
2022-10-02T19:38:34.038Z,12.00
2022-10-02T19:43:59.321Z,12.00
2022-10-02T19:49:09.129Z,11.90
2022-10-02T19:54:39.829Z,11.90
2022-10-02T19:59:53.619Z,11.90
2022-10-02T20:05:05.307Z,11.90
2022-10-02T20:10:24.556Z,11.90
2022-10-02T20:15:56.252Z,12.00
2022-10-02T20:21:24.114Z,11.90
2022-10-02T20:26:36.406Z,11.90
2022-10-02T20:32:00.662Z,11.70
2022-10-02T20:37:19.646Z,11.70
2022-10-02T20:42:40.941Z,11.50
2022-10-02T20:48:39.562Z,11.60
2022-10-02T20:54:15.483Z,11.60
2022-10-02T20:59:43.117Z,11.50
2022-10-02T21:05:04.383Z,11.40
2022-10-02T21:10:36.499Z,11.40
2022-10-02T21:16:09.631Z,11.50
2022-10-02T21:21:40.946Z,11.50
2022-10-02T21:27:07.410Z,11.50
2022-10-02T21:32:38.835Z,11.30
2022-10-02T21:38:00.567Z,11.30
2022-10-02T21:43:32.019Z,11.10
2022-10-02T21:49:11.311Z,11.10
2022-10-02T21:54:45.078Z,11.00
2022-10-02T22:00:07.233Z,11.00
2022-10-02T22:06:03.506Z,11.20
2022-10-02T22:11:30.582Z,11.10
2022-10-02T22:16:57.539Z,11.10
2022-10-02T22:22:33.673Z,11.20
2022-10-02T22:27:54.267Z,11.00
2022-10-02T22:33:28.313Z,11.10
2022-10-02T22:38:49.871Z,10.80
2022-10-02T22:44:05.964Z,11.10
2022-10-02T22:49:47.796Z,10.90
2022-10-02T22:55:08.956Z,10.80
2022-10-02T23:00:22.663Z,10.70
2022-10-02T23:05:33.856Z,10.60
2022-10-02T23:10:48.325Z,10.60
2022-10-02T23:16:11.674Z,10.50
2022-10-02T23:21:47.142Z,10.70
2022-10-02T23:27:21.431Z,10.90
2022-10-02T23:32:50.926Z,10.90
2022-10-02T23:38:20.255Z,11.00
2022-10-02T23:43:35.035Z,10.90
2022-10-02T23:48:44.289Z,10.70
2022-10-02T23:54:19.789Z,10.90
2022-10-02T23:59:56.173Z,10.80
